Time;durP1;ratioP1;P1;durP2;ratioP2;P2;SDS_P1;SDS_P2;PMS_P1;PMS_P2;Temp;Humidity;BMP_temperature;BMP_pressure;BME280_temperature;BME280_humidity;BME280_pressure;Samples;Min_cycle;Max_cycle;Signal;HPM_P1;HPM_P2
2022/11/09 00:01:35;;;;;;;8.52;1.98;;;;;;;;;;6155404;23;20384;-90
2022/11/09 00:04:02;;;;;;;2.20;1.77;;;11.50;99.90;;;;;;6130571;23;20025;-87
2022/11/09 00:06:28;;;;;;;7.15;2.00;;;;;;;;;;6155096;23;20017;-86
2022/11/09 00:08:55;;;;;;;2.15;1.58;;;;;;;;;;6130346;23;20021;-87
2022/11/09 00:11:21;;;;;;;1.80;1.58;;;;;;;;;;6130779;23;20096;-87
2022/11/09 00:13:47;;;;;;;4.07;2.10;;;;;;;;;;6155126;23;20018;-90
2022/11/09 00:16:17;;;;;;;3.65;2.08;;;11.80;99.90;;;;;;6154969;23;20021;-87
2022/11/09 00:18:46;;;;;;;2.40;1.42;;;;;;;;;;6130544;23;20018;-87
2022/11/09 00:21:13;;;;;;;2.92;1.90;;;;;;;;;;6155694;23;20049;-89
2022/11/09 00:23:39;;;;;;;12.00;1.73;;;;;;;;;;6155007;23;20083;-85
2022/11/09 00:26:08;;;;;;;8.18;2.03;;;11.70;99.90;;;;;;6130984;23;20141;-86
2022/11/09 00:28:34;;;;;;;2.25;1.40;;;;;;;;;;6154994;23;20136;-86
2022/11/09 00:31:02;;;;;;;2.15;1.65;;;11.80;99.90;;;;;;6130487;23;20022;-89
2022/11/09 00:33:28;;;;;;;3.38;1.67;;;;;;;;;;6155682;23;20018;-86
2022/11/09 00:35:54;;;;;;;2.55;1.40;;;;;;;;;;6130559;23;20018;-87
2022/11/09 00:38:21;;;;;;;5.28;2.15;;;;;;;;;;6154844;23;20466;-91
2022/11/09 00:40:47;;;;;;;2.13;1.70;;;;;;;;;;6154993;23;20014;-93
2022/11/09 00:43:13;;;;;;;1.38;1.15;;;;;;;;;;6154736;23;20466;-86
2022/11/09 00:45:39;;;;;;;5.93;2.65;;;;;;;;;;6130176;23;20018;-90
2022/11/09 00:48:06;;;;;;;2.53;1.63;;;11.70;99.90;;;;;;6130219;23;20017;-89
2022/11/09 00:50:32;;;;;;;2.47;1.58;;;;;;;;;;6154825;23;20018;-86
2022/11/09 00:52:58;;;;;;;2.20;1.70;;;;;;;;;;6130180;23;20064;-91
2022/11/09 00:55:24;;;;;;;7.90;1.90;;;;;;;;;;6155027;23;20087;-89
2022/11/09 00:57:51;;;;;;;3.97;1.90;;;;;;;;;;6154855;23;20013;-87
2022/11/09 01:00:17;;;;;;;5.93;2.30;;;;;;;;;;6154847;23;20021;-90
2022/11/09 01:02:43;;;;;;;4.18;3.00;;;;;;;;;;6130187;23;20462;-88
2022/11/09 01:05:09;;;;;;;2.25;2.05;;;;;;;;;;6131107;23;20312;-86
2022/11/09 01:07:36;;;;;;;3.55;2.50;;;;;;;;;;6154691;23;20387;-88
2022/11/09 01:10:03;;;;;;;8.23;2.40;;;;;;;;;;6130768;23;20018;-86
2022/11/09 01:12:29;;;;;;;3.25;2.40;;;;;;;;;;6130153;23;20017;-87
2022/11/09 01:14:55;;;;;;;4.63;3.08;;;;;;;;;;6155529;23;20017;-90
2022/11/09 01:17:21;;;;;;;8.82;3.10;;;;;;;;;;6130299;23;20350;-88
2022/11/09 01:19:47;;;;;;;4.35;2.90;;;;;;;;;;6130485;23;20490;-93
2022/11/09 01:22:13;;;;;;;8.27;3.70;;;;;;;;;;6154850;23;20029;-91
2022/11/09 01:24:39;;;;;;;8.60;3.25;;;;;;;;;;6131535;23;20026;-88
2022/11/09 01:27:05;;;;;;;9.07;4.00;;;;;;;;;;6130248;23;20013;-86
2022/11/09 01:29:31;;;;;;;7.03;3.33;;;;;;;;;;6130867;23;20350;-86
2022/11/09 01:31:57;;;;;;;6.97;3.03;;;;;;;;;;6130235;23;20020;-89
2022/11/09 01:34:23;;;;;;;4.20;2.72;;;12.30;99.90;;;;;;6131709;23;20053;-94
2022/11/09 01:36:50;;;;;;;5.18;2.88;;;;;;;;;;6155707;23;20017;-90
2022/11/09 01:39:17;;;;;;;9.93;3.28;;;;;;;;;;6131979;23;20466;-92
2022/11/09 01:41:43;;;;;;;7.60;4.55;;;;;;;;;;6131449;23;20021;-89
2022/11/09 01:44:10;;;;;;;5.90;3.03;;;;;;;;;;6158065;23;20021;-91
2022/11/09 01:46:57;;;;;;;7.10;2.95;;;;;;;;;;6130643;23;20021;-91
2022/11/09 01:49:26;;;;;;;6.05;3.22;;;;;;;;;;6131108;23;20025;-87
2022/11/09 01:51:58;;;;;;;4.53;2.72;;;;;;;;;;6135808;23;20017;-93
2022/11/09 01:54:33;;;;;;;6.75;2.50;;;;;;;;;;6157242;23;20041;-95
2022/11/09 01:57:04;;;;;;;7.78;2.72;;;;;;;;;;6131141;23;20061;-91
2022/11/09 01:59:32;;;;;;;9.30;2.17;;;;;;;;;;6131102;23;20044;-91
2022/11/09 02:02:00;;;;;;;7.63;3.25;;;;;;;;;;6156565;23;20017;-88
2022/11/09 02:04:29;;;;;;;5.78;2.97;;;;;;;;;;6131520;23;20535;-95
2022/11/09 02:06:56;;;;;;;5.28;2.33;;;;;;;;;;6132422;23;20356;-94
2022/11/09 02:09:37;;;;;;;6.43;2.40;;;;;;;;;;6132185;23;20017;-88
2022/11/09 02:12:03;;;;;;;5.80;2.90;;;;;;;;;;6156649;23;20068;-93
2022/11/09 02:14:31;;;;;;;8.88;2.47;;;;;;;;;;6156758;23;20015;-94
2022/11/09 02:16:57;;;;;;;11.35;3.22;;;;;;;;;;6156564;23;20053;-87
2022/11/09 02:19:23;;;;;;;5.22;3.67;;;;;;;;;;6132274;23;20013;-90
2022/11/09 02:21:49;;;;;;;7.28;3.00;;;;;;;;;;6131656;23;20025;-88
2022/11/09 02:24:15;;;;;;;5.00;2.72;;;;;;;;;;6131654;23;20065;-89
2022/11/09 02:26:51;;;;;;;3.83;2.63;;;12.30;99.90;;;;;;6132944;23;20052;-86
2022/11/09 02:29:22;;;;;;;9.63;3.08;;;12.30;99.90;;;;;;6156468;23;20018;-88
2022/11/09 02:31:56;;;;;;;8.27;2.97;;;12.30;99.90;;;;;;6131619;23;20463;-90
2022/11/09 02:34:23;;;;;;;3.45;2.63;;;12.50;99.90;;;;;;6131694;23;20021;-89
2022/11/09 02:36:49;;;;;;;11.98;4.05;;;;;;;;;;6131714;23;20028;-92
2022/11/09 02:39:17;;;;;;;12.35;2.65;;;;;;;;;;6131635;23;20462;-89
2022/11/09 02:41:45;;;;;;;3.97;2.60;;;;;;;;;;6131411;23;20013;-87
2022/11/09 02:44:11;;;;;;;5.07;3.08;;;;;;;;;;6156050;23;20416;-92
2022/11/09 02:46:38;;;;;;;5.32;2.70;;;;;;;;;;6156001;23;20028;-88
2022/11/09 02:49:04;;;;;;;6.65;2.45;;;;;;;;;;6155698;23;20092;-87
2022/11/09 02:51:30;;;;;;;12.63;2.92;;;;;;;;;;6155898;23;20022;-86
2022/11/09 02:53:56;;;;;;;8.07;3.00;;;;;;;;;;6155931;23;20014;-88
2022/11/09 02:56:22;;;;;;;8.60;3.20;;;;;;;;;;6132211;23;20036;-93
2022/11/09 02:58:48;;;;;;;3.10;2.63;;;;;;;;;;6131517;23;20332;-90
2022/11/09 03:01:14;;;;;;;12.48;3.60;;;;;;;;;;6131235;23;20072;-87
2022/11/09 03:03:40;;;;;;;11.90;3.22;;;;;;;;;;6132610;23;20014;-92
2022/11/09 03:06:06;;;;;;;8.75;2.90;;;;;;;;;;6157042;23;20351;-90
2022/11/09 03:08:32;;;;;;;9.93;2.90;;;;;;;;;;6132584;23;20426;-87
2022/11/09 03:10:59;;;;;;;6.03;3.03;;;;;;;;;;6157065;23;20025;-92
2022/11/09 03:13:25;;;;;;;4.03;2.33;;;;;;;;;;6163080;23;20022;-90
2022/11/09 03:15:51;;;;;;;5.45;3.15;;;;;;;;;;6137231;23;20017;-94
2022/11/09 03:18:17;;;;;;;7.18;2.83;;;;;;;;;;6136055;23;20024;-93
2022/11/09 03:20:43;;;;;;;5.88;3.10;;;;;;;;;;6132845;23;20149;-96
2022/11/09 03:23:12;;;;;;;8.45;2.90;;;;;;;;;;6156645;23;20028;-93
2022/11/09 03:25:38;;;;;;;14.63;2.60;;;;;;;;;;6131997;23;20021;-94
2022/11/09 03:28:05;;;;;;;6.10;2.63;;;;;;;;;;6156513;23;20014;-96
2022/11/09 03:30:31;;;;;;;6.63;2.40;;;;;;;;;;6131771;23;20017;-95
2022/11/09 03:32:59;;;;;;;9.60;3.38;;;;;;;;;;6132091;23;20072;-95
2022/11/09 03:35:25;;;;;;;14.00;3.22;;;;;;;;;;6132364;23;20028;-95
2022/11/09 03:37:51;;;;;;;9.25;3.13;;;;;;;;;;6156575;23;20073;-95
2022/11/09 03:40:17;;;;;;;7.38;2.75;;;;;;;;;;6156733;23;20485;-93
2022/11/09 03:42:47;;;;;;;9.55;2.63;;;;;;;;;;6156375;23;20049;-96
2022/11/09 03:45:14;;;;;;;9.82;2.65;;;11.80;99.90;;;;;;6131064;23;20029;-90
2022/11/09 03:47:44;;;;;;;12.93;4.03;;;11.90;99.90;;;;;;6155823;23;20018;-90
2022/11/09 03:50:10;;;;;;;5.55;2.30;;;;;;;;;;6148850;23;20025;-87
2022/11/09 03:52:36;;;;;;;6.22;2.33;;;;;;;;;;6155011;23;20025;-87
2022/11/09 03:55:04;;;;;;;5.90;2.72;;;11.60;99.90;;;;;;6130344;23;20395;-89
2022/11/09 03:57:30;;;;;;;7.07;2.60;;;;;;;;;;6130976;23;20553;-89
2022/11/09 03:59:56;;;;;;;7.80;2.50;;;;;;;;;;6155054;23;20017;-87
2022/11/09 04:02:22;;;;;;;5.47;2.45;;;;;;;;;;6130427;23;20096;-87
2022/11/09 04:04:48;;;;;;;7.63;2.50;;;;;;;;;;6130647;23;20039;-86
2022/11/09 04:07:14;;;;;;;9.43;2.97;;;;;;;;;;6155027;23;20017;-86
2022/11/09 04:09:40;;;;;;;5.22;2.17;;;;;;;;;;6157761;23;20435;-87
2022/11/09 04:12:06;;;;;;;7.63;2.30;;;;;;;;;;6155317;23;20020;-86
2022/11/09 04:14:32;;;;;;;8.57;2.95;;;;;;;;;;6130710;23;20026;-87
2022/11/09 04:16:58;;;;;;;9.20;2.50;;;;;;;;;;6155472;23;20013;-88
2022/11/09 04:19:24;;;;;;;9.00;3.10;;;;;;;;;;6155129;23;20071;-90
2022/11/09 04:21:50;;;;;;;4.60;2.55;;;;;;;;;;6130872;23;20029;-90
2022/11/09 04:24:16;;;;;;;10.45;2.45;;;;;;;;;;6156139;23;20021;-87
2022/11/09 04:26:42;;;;;;;10.55;2.67;;;;;;;;;;6130610;23;20105;-90
2022/11/09 04:29:09;;;;;;;9.20;2.15;;;11.60;99.90;;;;;;6130801;23;20013;-86
2022/11/09 04:31:35;;;;;;;4.68;2.40;;;;;;;;;;6155070;23;20390;-91
2022/11/09 04:34:01;;;;;;;5.13;2.40;;;;;;;;;;6155309;23;20018;-86
2022/11/09 04:36:27;;;;;;;9.82;2.85;;;;;;;;;;6130626;23;20107;-90
2022/11/09 04:38:53;;;;;;;7.63;2.78;;;;;;;;;;6130637;23;20115;-88
2022/11/09 04:41:19;;;;;;;8.00;2.95;;;;;;;;;;6130604;23;20080;-88
2022/11/09 04:43:45;;;;;;;10.52;2.65;;;;;;;;;;6130723;23;20064;-91
2022/11/09 04:46:11;;;;;;;7.45;2.38;;;;;;;;;;6155407;23;20072;-87
2022/11/09 04:48:37;;;;;;;4.63;2.67;;;;;;;;;;6155461;23;20075;-94
2022/11/09 04:51:05;;;;;;;6.38;2.40;;;;;;;;;;6131093;23;20059;-93
2022/11/09 04:53:31;;;;;;;9.98;2.55;;;;;;;;;;6131169;23;20020;-94
2022/11/09 04:55:57;;;;;;;8.43;3.28;;;;;;;;;;6131804;23;20018;-92
2022/11/09 04:58:24;;;;;;;9.07;2.42;;;;;;;;;;6155624;23;20020;-92
2022/11/09 05:00:50;;;;;;;9.68;2.78;;;;;;;;;;6131372;23;20053;-87
2022/11/09 05:03:16;;;;;;;5.80;2.80;;;;;;;;;;6154818;23;20068;-88
2022/11/09 05:05:42;;;;;;;11.02;2.50;;;;;;;;;;6154799;23;20451;-88
2022/11/09 05:08:08;;;;;;;13.20;3.58;;;;;;;;;;6130101;23;20359;-87
2022/11/09 05:10:35;;;;;;;8.55;3.05;;;;;;;;;;6130033;23;20093;-90
2022/11/09 05:13:05;;;;;;;7.45;2.33;;;11.80;99.90;;;;;;6154756;23;20017;-89
2022/11/09 05:15:32;;;;;;;10.93;2.55;;;;;;;;;;6154589;23;20027;-91
2022/11/09 05:17:58;;;;;;;6.43;2.85;;;;;;;;;;6155186;23;20053;-90
2022/11/09 05:20:24;;;;;;;11.32;2.78;;;;;;;;;;6130489;23;20029;-89
2022/11/09 05:25:35;;;;;;;7.22;2.70;;;;;;;;;;6154611;23;20332;-86
2022/11/09 05:28:01;;;;;;;10.18;2.72;;;;;;;;;;6154795;23;20064;-89
2022/11/09 05:30:27;;;;;;;8.23;2.90;;;;;;;;;;6130105;23;20025;-87
2022/11/09 05:32:53;;;;;;;10.88;3.20;;;;;;;;;;6130263;23;20020;-88
2022/11/09 05:35:19;;;;;;;8.27;3.17;;;;;;;;;;6130314;23;20399;-87
2022/11/09 05:37:49;;;;;;;13.98;3.28;;;;;;;;;;6130007;23;20020;-87
2022/11/09 05:40:16;;;;;;;9.30;2.88;;;;;;;;;;6132535;23;20100;-89
2022/11/09 05:42:42;;;;;;;8.02;2.85;;;;;;;;;;6131772;23;20096;-86
2022/11/09 05:45:09;;;;;;;5.40;2.25;;;;;;;;;;6131620;23;20025;-87
2022/11/09 05:47:39;;;;;;;6.65;2.97;;;;;;;;;;6131855;23;20479;-87
2022/11/09 05:50:06;;;;;;;7.85;2.53;;;12.00;99.90;;;;;;6131802;23;20017;-90
2022/11/09 05:52:32;;;;;;;5.80;2.47;;;;;;;;;;6131886;23;20052;-88
2022/11/09 05:54:59;;;;;;;9.52;2.90;;;;;;;;;;6156422;23;20021;-87
2022/11/09 05:57:25;;;;;;;8.48;2.53;;;;;;;;;;6156667;23;20013;-87
2022/11/09 05:59:51;;;;;;;9.15;3.28;;;;;;;;;;6156319;23;20018;-89
2022/11/09 06:02:17;;;;;;;15.93;3.15;;;;;;;;;;6131906;23;20020;-86
2022/11/09 06:04:43;;;;;;;7.28;2.40;;;;;;;;;;6133168;23;20426;-87
2022/11/09 06:07:09;;;;;;;6.55;2.60;;;;;;;;;;6132864;23;20036;-87
2022/11/09 06:09:35;;;;;;;10.52;3.05;;;;;;;;;;6156260;23;20049;-87
2022/11/09 06:12:02;;;;;;;12.63;3.28;;;;;;;;;;6157887;23;20420;-89
2022/11/09 06:14:28;;;;;;;6.22;2.45;;;;;;;;;;6156388;23;20101;-91
2022/11/09 06:16:54;;;;;;;9.73;3.03;;;;;;;;;;6132048;23;20021;-87
2022/11/09 06:19:20;;;;;;;12.85;2.70;;;;;;;;;;6131937;23;20086;-86
2022/11/09 06:21:46;;;;;;;9.57;3.60;;;;;;;;;;6131552;23;20014;-90
2022/11/09 06:24:12;;;;;;;10.38;3.47;;;;;;;;;;6156393;23;20069;-87
2022/11/09 06:26:38;;;;;;;7.32;3.08;;;;;;;;;;6156553;23;20018;-89
2022/11/09 06:29:04;;;;;;;18.27;2.67;;;;;;;;;;6132024;23;20048;-88
2022/11/09 06:31:30;;;;;;;7.07;2.40;;;;;;;;;;6131964;23;20022;-90
2022/11/09 06:33:56;;;;;;;4.10;2.28;;;;;;;;;;6131778;23;20013;-88
2022/11/09 06:36:22;;;;;;;6.13;2.30;;;;;;;;;;6131955;23;20351;-87
2022/11/09 06:38:49;;;;;;;8.20;2.85;;;;;;;;;;6157802;23;20013;-90
2022/11/09 06:41:15;;;;;;;8.32;3.53;;;;;;;;;;6158156;23;20021;-88
2022/11/09 06:43:42;;;;;;;5.28;2.20;;;;;;;;;;6136750;23;20021;-92
2022/11/09 06:46:09;;;;;;;10.07;2.65;;;;;;;;;;6161255;23;20021;-87
2022/11/09 06:48:36;;;;;;;6.25;1.80;;;;;;;;;;6162169;23;20028;-93
2022/11/09 06:51:03;;;;;;;16.17;3.10;;;;;;;;;;6136734;23;20024;-91
2022/11/09 06:53:30;;;;;;;9.55;3.53;;;;;;;;;;6161500;23;20053;-93
2022/11/09 06:55:57;;;;;;;4.90;2.70;;;;;;;;;;6161589;23;20021;-95
2022/11/09 06:58:24;;;;;;;8.90;2.85;;;;;;;;;;6137439;23;20022;-89
2022/11/09 07:00:50;;;;;;;7.13;2.38;;;;;;;;;;6162180;23;20144;-87
2022/11/09 07:03:17;;;;;;;9.18;2.22;;;;;;;;;;6135597;23;20450;-90
2022/11/09 07:05:43;;;;;;;8.05;2.92;;;;;;;;;;6159918;23;20056;-92
2022/11/09 07:08:09;;;;;;;4.63;2.58;;;;;;;;;;6131835;23;20024;-87
2022/11/09 07:10:36;;;;;;;6.05;2.50;;;;;;;;;;6158055;23;20018;-86
2022/11/09 07:13:02;;;;;;;7.30;2.47;;;;;;;;;;6158185;23;20017;-87
2022/11/09 07:15:28;;;;;;;8.30;2.85;;;;;;;;;;6156342;23;20450;-88
2022/11/09 07:18:01;;;;;;;9.18;2.05;;;;;;;;;;6155448;23;20451;-86
2022/11/09 07:20:28;;;;;;;10.10;2.97;;;;;;;;;;6131681;23;20097;-88
2022/11/09 07:22:54;;;;;;;8.07;2.60;;;;;;;;;;6156135;23;20032;-86
2022/11/09 07:25:20;;;;;;;6.05;2.50;;;;;;;;;;6157346;23;20347;-86
2022/11/09 07:27:46;;;;;;;9.55;3.25;;;;;;;;;;6131114;23;20024;-85
2022/11/09 07:30:13;;;;;;;7.15;2.63;;;;;;;;;;6157999;23;20033;-84
2022/11/09 07:32:39;;;;;;;6.63;2.42;;;;;;;;;;6156887;23;20422;-85
2022/11/09 07:35:06;;;;;;;14.43;2.80;;;;;;;;;;6155858;23;20347;-85
2022/11/09 07:37:32;;;;;;;9.40;2.55;;;;;;;;;;6131473;23;20018;-85
2022/11/09 07:39:58;;;;;;;7.40;2.28;;;;;;;;;;6158122;23;20017;-85
2022/11/09 07:42:24;;;;;;;8.82;2.63;;;;;;;;;;6131010;23;20510;-86
2022/11/09 07:44:51;;;;;;;9.18;2.65;;;;;;;;;;6156130;23;20080;-86
2022/11/09 07:47:18;;;;;;;12.45;3.45;;;;;;;;;;6106853;23;20052;-88
2022/11/09 07:49:44;;;;;;;6.90;3.25;;;;;;;;;;6157220;23;20028;-86
2022/11/09 07:52:10;;;;;;;11.63;2.47;;;;;;;;;;6131736;23;20420;-90
2022/11/09 07:54:36;;;;;;;6.47;2.63;;;;;;;;;;6106852;23;20025;-89
2022/11/09 07:57:02;;;;;;;9.25;2.80;;;;;;;;;;6157862;23;20014;-88
2022/11/09 07:59:30;;;;;;;9.07;2.30;;;;;;;;;;6132519;23;20026;-86
2022/11/09 08:01:56;;;;;;;8.18;2.65;;;;;;;;;;6131317;23;20064;-87
2022/11/09 08:04:26;;;;;;;8.60;2.63;;;;;;;;;;6131222;23;20403;-89
2022/11/09 08:06:52;;;;;;;6.63;2.10;;;;;;;;;;6130917;23;20072;-86
2022/11/09 08:09:18;;;;;;;7.05;2.92;;;;;;;;;;6131013;23;20075;-86
2022/11/09 08:11:45;;;;;;;7.55;2.28;;;;;;;;;;6107468;23;20022;-87
2022/11/09 08:14:11;;;;;;;5.90;2.47;;;;;;;;;;6131524;23;20089;-87
2022/11/09 08:16:37;;;;;;;8.25;2.40;;;;;;;;;;6158069;23;20071;-85
2022/11/09 08:19:07;;;;;;;11.48;3.80;;;;;;;;;;6107495;23;20072;-85
2022/11/09 08:21:35;;;;;;;13.25;3.20;;;;;;;;;;6107467;23;20096;-85
2022/11/09 08:24:01;;;;;;;7.20;2.50;;;;;;;;;;6134411;23;20097;-85
2022/11/09 08:26:27;;;;;;;9.50;2.92;;;;;;;;;;6132935;23;20530;-84
2022/11/09 08:28:54;;;;;;;8.05;2.42;;;;;;;;;;6106776;23;20398;-86
2022/11/09 08:31:21;;;;;;;5.57;2.15;;;;;;;;;;6106593;23;20025;-85
2022/11/09 08:33:47;;;;;;;3.95;2.47;;;;;;;;;;6157352;23;20018;-86
2022/11/09 08:36:14;;;;;;;9.18;3.30;;;;;;;;;;6107166;23;20028;-85
2022/11/09 08:38:41;;;;;;;10.95;2.60;;;;;;;;;;6158206;23;20028;-85
2022/11/09 08:41:07;;;;;;;11.40;2.28;;;;;;;;;;6106931;23;20065;-85
2022/11/09 08:43:33;;;;;;;6.05;2.85;;;;;;;;;;6107452;23;20017;-87
2022/11/09 08:45:59;;;;;;;10.13;2.67;;;;;;;;;;6142372;23;20394;-85
2022/11/09 08:48:25;;;;;;;12.60;2.88;;;;;;;;;;6155654;23;20076;-87
2022/11/09 08:50:56;;;;;;;5.20;2.33;;;;;;;;;;6156216;23;20025;-85
2022/11/09 08:53:26;;;;;;;9.95;2.63;;;;;;;;;;6155566;23;20013;-86
2022/11/09 08:55:52;;;;;;;10.63;2.58;;;;;;;;;;6157353;23;20017;-85
2022/11/09 08:58:22;;;;;;;10.30;2.53;;;;;;;;;;6156328;23;20017;-85
2022/11/09 09:00:48;;;;;;;12.48;3.20;;;;;;;;;;6156193;23;20084;-87
2022/11/09 09:03:14;;;;;;;13.23;2.65;;;;;;;;;;6131038;23;20020;-85
2022/11/09 09:05:40;;;;;;;9.80;3.00;;;;;;;;;;6132300;23;20024;-87
2022/11/09 09:08:07;;;;;;;7.45;2.22;;;;;;;;;;6132507;23;20049;-85
2022/11/09 09:10:34;;;;;;;5.00;1.88;;;;;;;;;;6157092;23;20332;-85
2022/11/09 09:13:00;;;;;;;7.70;2.22;;;;;;;;;;6156241;23;20147;-85
2022/11/09 09:15:27;;;;;;;7.00;3.00;;;;;;;;;;6155436;23;20017;-86
2022/11/09 09:17:53;;;;;;;11.13;2.95;;;;;;;;;;6155188;23;20444;-85
2022/11/09 09:20:19;;;;;;;6.90;2.92;;;;;;;;;;6131526;23;20432;-85
2022/11/09 09:22:45;;;;;;;8.85;3.03;;;;;;;;;;6157440;23;20092;-84
2022/11/09 09:25:11;;;;;;;6.70;2.90;;;;;;;;;;6155716;23;20022;-86
2022/11/09 09:27:38;;;;;;;5.10;2.38;;;;;;;;;;6131270;23;20312;-87
2022/11/09 09:30:04;;;;;;;7.63;3.17;;;;;;;;;;6157175;23;20017;-86
2022/11/09 09:32:30;;;;;;;12.30;2.30;;;;;;;;;;6155270;23;20065;-86
2022/11/09 09:34:56;;;;;;;11.48;3.63;;;;;;;;;;6130710;23;20474;-85
2022/11/09 09:37:22;;;;;;;16.13;2.85;;;;;;;;;;6155831;23;20145;-85
2022/11/09 09:39:48;;;;;;;7.70;2.92;;;;;;;;;;6154759;23;20053;-85
2022/11/09 09:42:16;;;;;;;8.52;3.17;;;;;;;;;;6155546;23;20017;-90
2022/11/09 09:44:59;;;;;;;4.45;2.80;;;;;;;;;;6154262;23;20096;-85
2022/11/09 09:47:44;;;;;;;7.97;3.33;;;12.60;99.90;;;;;;6130177;23;20447;-84
2022/11/09 09:50:17;;;;;;;13.05;2.70;;;;;;;;;;6129811;23;20088;-85
2022/11/09 09:53:01;;;;;;;8.70;2.80;;;12.70;99.90;;;;;;6130566;23;20072;-89
2022/11/09 09:55:39;;;;;;;3.80;2.30;;;;;;;;;;6155128;23;20474;-85
2022/11/09 09:58:24;;;;;;;8.60;2.75;;;12.60;99.90;;;;;;6129871;23;20056;-86
2022/11/09 10:01:03;;;;;;;8.02;2.58;;;;;;;;;;6130483;23;20021;-85
2022/11/09 10:03:29;;;;;;;11.02;3.08;;;;;;;;;;6129817;23;20045;-86
2022/11/09 10:06:01;;;;;;;10.85;2.92;;;;;;;;;;6154723;23;20014;-85
2022/11/09 10:08:27;;;;;;;8.27;3.05;;;;;;;;;;6154537;23;20021;-86
2022/11/09 10:11:05;;;;;;;8.18;2.63;;;;;;;;;;6129502;23;20088;-86
2022/11/09 10:13:31;;;;;;;11.30;3.42;;;;;;;;;;6154261;23;20479;-87
2022/11/09 10:16:06;;;;;;;9.85;3.85;;;;;;;;;;6129657;23;20013;-87
2022/11/09 10:19:01;;;;;;;9.93;4.05;;;12.80;99.90;;;;;;6129632;23;20509;-86
2022/11/09 10:21:31;;;;;;;12.57;3.28;;;;;;;;;;6155063;23;20024;-86
2022/11/09 10:24:16;;;;;;;10.93;3.97;;;;;;;;;;6156463;23;20016;-86
2022/11/09 10:26:43;;;;;;;5.68;3.45;;;;;;;;;;6157611;23;20017;-88
2022/11/09 10:29:18;;;;;;;6.68;3.05;;;;;;;;;;6134092;23;20017;-86
2022/11/09 10:31:45;;;;;;;7.85;3.63;;;;;;;;;;6158193;23;20017;-86
2022/11/09 10:34:32;;;;;;;6.38;3.70;;;;;;;;;;6158230;23;20020;-86
2022/11/09 10:36:59;;;;;;;9.00;4.28;;;;;;;;;;6131620;23;20018;-87
2022/11/09 10:39:26;;;;;;;11.45;3.58;;;;;;;;;;6131776;23;20069;-86
2022/11/09 10:41:52;;;;;;;11.05;4.05;;;;;;;;;;6156763;23;20018;-86
2022/11/09 10:44:19;;;;;;;13.52;3.70;;;;;;;;;;6158288;23;20041;-88
2022/11/09 10:47:06;;;;;;;7.97;3.58;;;13.40;99.90;;;;;;6159162;23;20411;-88
2022/11/09 10:49:33;;;;;;;14.90;4.47;;;;;;;;;;6132873;23;20084;-88
2022/11/09 10:51:59;;;;;;;10.15;2.83;;;;;;;;;;6132448;23;20017;-86
2022/11/09 10:54:26;;;;;;;6.22;3.15;;;;;;;;;;6132075;23;20018;-88
2022/11/09 10:57:19;;;;;;;9.75;3.90;;;;;;;;;;6132236;23;20335;-86
2022/11/09 10:59:57;;;;;;;7.97;3.72;;;;;;;;;;6015936;23;20030;-87
2022/11/09 11:02:24;;;;;;;11.32;4.68;;;;;;;;;;6016828;23;20038;-88
2022/11/09 11:04:50;;;;;;;8.55;4.35;;;;;;;;;;5994082;23;20327;-87
2022/11/09 11:07:20;;;;;;;8.98;3.65;;;;;;;;;;5992873;23;20024;-88
2022/11/09 11:09:46;;;;;;;10.73;3.80;;;;;;;;;;5992733;23;20019;-89
2022/11/09 11:12:14;;;;;;;9.38;3.67;;;;;;;;;;5992887;23;20062;-84
2022/11/09 11:14:43;;;;;;;7.00;3.42;;;;;;;;;;6038780;23;20027;-88
2022/11/09 11:17:26;;;;;;;11.27;3.50;;;;;;;;;;6022560;23;20020;-88
2022/11/09 11:19:52;;;;;;;10.82;4.15;;;;;;;;;;5997911;23;20015;-88
2022/11/09 11:22:26;;;;;;;24.05;4.82;;;;;;;;;;6040655;23;20047;-87
2022/11/09 11:24:52;;;;;;;12.05;3.72;;;;;;;;;;6038791;23;20074;-87
2022/11/09 11:27:36;;;;;;;8.60;3.80;;;;;;;;;;6015459;23;20106;-87
2022/11/09 11:30:02;;;;;;;16.42;3.33;;;;;;;;;;5992129;23;20071;-86
2022/11/09 11:32:28;;;;;;;10.68;3.92;;;;;;;;;;5992567;23;20019;-87
2022/11/09 11:34:55;;;;;;;10.75;3.88;;;;;;;;;;5992974;23;20026;-88
2022/11/09 11:37:34;;;;;;;6.03;2.95;;;;;;;;;;6090733;23;20479;-87
2022/11/09 11:40:22;;;;;;;10.27;3.58;;;;;;;;;;6109231;23;20025;-86
2022/11/09 11:43:21;;;;;;;8.60;4.53;;;;;;;;;;6132539;23;20022;-86
2022/11/09 11:45:47;;;;;;;16.80;4.55;;;;;;;;;;5992943;23;20026;-89
2022/11/09 11:48:31;;;;;;;13.02;4.45;;;;;;;;;;6016136;23;20023;-85
2022/11/09 11:51:20;;;;;;;9.90;4.15;;;;;;;;;;5992321;23;20087;-87
2022/11/09 11:53:51;;;;;;;8.73;4.25;;;;;;;;;;6039761;23;20026;-87
2022/11/09 11:56:20;;;;;;;7.40;3.20;;;;;;;;;;6016757;23;20019;-86
2022/11/09 11:58:52;;;;;;;13.18;4.00;;;;;;;;;;6040526;23;20047;-87
2022/11/09 12:01:43;;;;;;;6.43;3.10;;;13.20;99.90;;;;;;6015702;23;20023;-89
2022/11/09 12:04:21;;;;;;;12.05;4.18;;;;;;;;;;5992055;23;20030;-87
2022/11/09 12:06:53;;;;;;;6.53;3.35;;;;;;;;;;6015517;23;20032;-87
2022/11/09 12:09:45;;;;;;;10.23;3.42;;;;;;;;;;6039994;23;20053;-87
2022/11/09 12:12:23;;;;;;;8.68;3.72;;;;;;;;;;6034734;23;20449;-87
2022/11/09 12:14:50;;;;;;;7.35;3.75;;;;;;;;;;5991784;23;20019;-88
2022/11/09 12:17:22;;;;;;;7.65;3.83;;;;;;;;;;6039828;23;20098;-86
2022/11/09 12:19:59;;;;;;;7.85;3.42;;;;;;;;;;6015578;23;20015;-88
2022/11/09 12:22:32;;;;;;;8.68;4.32;;;;;;;;;;6101301;23;20049;-86
2022/11/09 12:25:23;;;;;;;11.05;4.45;;;13.20;99.90;;;;;;6108126;23;20048;-87
2022/11/09 12:27:52;;;;;;;24.80;5.20;;;;;;;;;;6158469;23;20017;-90
2022/11/09 12:30:23;;;;;;;13.77;5.18;;;;;;;;;;6158098;23;20343;-91
2022/11/09 12:32:55;;;;;;;5.70;3.72;;;;;;;;;;6107854;23;20018;-87
2022/11/09 12:35:57;;;;;;;9.73;3.78;;;;;;;;;;6131878;23;20033;-86
2022/11/09 12:38:25;;;;;;;11.48;5.05;;;;;;;;;;5992226;23;20031;-85
2022/11/09 12:40:59;;;;;;;7.63;3.47;;;;;;;;;;6015287;23;20015;-86
2022/11/09 12:43:34;;;;;;;6.90;3.50;;;;;;;;;;5991810;23;20022;-86
2022/11/09 12:46:02;;;;;;;8.43;3.75;;;;;;;;;;6014206;23;20072;-87
2022/11/09 12:48:29;;;;;;;10.93;3.28;;;;;;;;;;6037611;23;20026;-85
2022/11/09 12:50:56;;;;;;;15.15;3.50;;;;;;;;;;6015468;23;20023;-86
2022/11/09 12:53:26;;;;;;;9.38;4.07;;;;;;;;;;5993117;23;20019;-87
2022/11/09 12:55:55;;;;;;;9.82;3.65;;;;;;;;;;6016899;23;20019;-86
2022/11/09 12:58:25;;;;;;;6.70;2.85;;;;;;;;;;6014685;23;20047;-87
2022/11/09 13:00:56;;;;;;;9.13;3.10;;;;;;;;;;5990731;23;20019;-88
2022/11/09 13:03:32;;;;;;;5.45;2.88;;;;;;;;;;6038073;23;20023;-85
2022/11/09 13:06:18;;;;;;;3.28;1.27;;;;;;;;;;6015239;23;20447;-87
2022/11/09 13:09:16;;;;;;;2.20;1.23;;;12.90;99.90;;;;;;6037865;23;20023;-85
2022/11/09 13:11:47;;;;;;;3.67;1.45;;;;;;;;;;6028243;23;20028;-85
2022/11/09 13:14:27;;;;;;;4.78;1.85;;;;;;;;;;6131942;23;20021;-90
2022/11/09 13:16:55;;;;;;;7.63;2.55;;;;;;;;;;6157855;23;20455;-87
2022/11/09 13:19:33;;;;;;;7.05;2.97;;;;;;;;;;6159792;23;20014;-84
2022/11/09 13:22:19;;;;;;;7.93;2.22;;;12.60;99.90;;;;;;6131405;23;20017;-84
2022/11/09 13:24:58;;;;;;;8.52;2.28;;;;;;;;;;6013699;23;20075;-85
2022/11/09 13:27:30;;;;;;;14.98;2.90;;;;;;;;;;6038083;23;20402;-83
2022/11/09 13:29:56;;;;;;;7.97;2.67;;;;;;;;;;6013849;23;20131;-84
2022/11/09 13:32:23;;;;;;;8.02;2.78;;;;;;;;;;6037342;23;20023;-86
2022/11/09 13:34:54;;;;;;;7.40;3.58;;;;;;;;;;6038436;23;20047;-83
2022/11/09 13:37:32;;;;;;;7.85;2.35;;;;;;;;;;5990132;23;20031;-84
2022/11/09 13:39:58;;;;;;;7.75;2.90;;;;;;;;;;6013511;23;20090;-83
2022/11/09 13:42:34;;;;;;;7.30;2.72;;;12.20;99.90;;;;;;5990320;23;20027;-84
2022/11/09 13:45:30;;;;;;;2.70;2.10;;;;;;;;;;6013653;23;20023;-84
2022/11/09 13:47:56;;;;;;;6.60;2.08;;;;;;;;;;5902679;23;20028;-84
2022/11/09 13:50:23;;;;;;;8.43;3.17;;;;;;;;;;5902601;24;20064;-83
2022/11/09 13:52:50;;;;;;;8.57;2.40;;;12.20;99.90;;;;;;5902697;24;20025;-83
2022/11/09 13:55:29;;;;;;;6.78;2.20;;;;;;;;;;5902515;24;20017;-84
2022/11/09 13:58:15;;;;;;;11.95;2.85;;;;;;;;;;5904019;24;20028;-96
2022/11/09 14:07:31;;;;;;;9.67;2.50;;;;;;;;;;6044602;23;20120;-93
2022/11/09 14:09:57;;;;;;;6.10;2.63;;;;;;;;;;6020293;23;20019;-93
2022/11/09 14:12:30;;;;;;;4.45;2.72;;;;;;;;;;5999829;23;20023;-93
2022/11/09 14:15:09;;;;;;;4.13;2.30;;;;;;;;;;6041815;23;20103;-92
2022/11/09 14:18:11;;;;;;;13.43;2.47;;;;;;;;;;5993361;23;20019;-94
2022/11/09 14:20:37;;;;;;;4.78;2.08;;;;;;;;;;5938637;24;20020;-92
2022/11/09 14:23:36;;;;;;;6.38;1.98;;;;;;;;;;5940316;24;20053;-92
2022/11/09 14:26:08;;;;;;;2.75;1.70;;;;;;;;;;5967779;23;20028;-93
2022/11/09 14:28:36;;;;;;;4.53;1.75;;;;;;;;;;5989489;23;20020;-93
2022/11/09 14:31:42;;;;;;;4.03;1.80;;;;;;;;;;5988012;23;20023;-93
2022/11/09 14:34:13;;;;;;;2.70;1.40;;;;;;;;;;5986846;23;20020;-85
2022/11/09 14:36:40;;;;;;;9.50;2.40;;;;;;;;;;5987711;23;20020;-84
2022/11/09 14:39:16;;;;;;;7.95;2.17;;;;;;;;;;5989161;23;20043;-88
2022/11/09 14:41:43;;;;;;;3.08;1.55;;;;;;;;;;5987549;23;20023;-85
2022/11/09 14:44:18;;;;;;;6.78;2.00;;;12.10;99.90;;;;;;5987769;23;20079;-84
2022/11/09 14:46:51;;;;;;;5.82;2.00;;;;;;;;;;5963521;23;20023;-85
2022/11/09 14:49:17;;;;;;;2.58;1.90;;;;;;;;;;5987018;23;20335;-83
2022/11/09 14:51:43;;;;;;;4.25;1.70;;;;;;;;;;5986974;23;20103;-84